createdAt,value
2019-05-02T00:00:13.744Z,97816.77
2019-05-02T00:02:45.058Z,97811.89
2019-05-02T00:05:18.307Z,97810.06
2019-05-02T00:07:49.128Z,97813.56
2019-05-02T00:10:24.868Z,97810.27
2019-05-02T00:12:57.451Z,97806.03
2019-05-02T00:15:28.260Z,97804.43
2019-05-02T00:18:01.393Z,97802.35
2019-05-02T00:20:37.896Z,97796.94
2019-05-02T00:23:08.791Z,97800.19
2019-05-02T00:25:40.676Z,97801.50
2019-05-02T00:28:13.990Z,97796.38
2019-05-02T00:30:50.011Z,97795.06
2019-05-02T00:33:22.643Z,97796.77
2019-05-02T00:35:54.736Z,97790.76
2019-05-02T00:38:25.379Z,97788.08
2019-05-02T00:41:01.772Z,97789.63
2019-05-02T00:43:37.021Z,97784.52
2019-05-02T00:46:11.234Z,97785.73
2019-05-02T00:48:54.040Z,97780.12
2019-05-02T00:51:26.709Z,97781.77
2019-05-02T00:53:58.382Z,97778.55
2019-05-02T00:56:28.981Z,97777.66
2019-05-02T00:59:02.413Z,97778.01
2019-05-02T01:01:51.577Z,97775.70
2019-05-02T01:04:35.319Z,97772.17
2019-05-02T01:07:07.750Z,97773.19
2019-05-02T01:09:42.316Z,97765.25
2019-05-02T01:12:25.176Z,97773.03
2019-05-02T01:14:45.669Z,97771.72
2019-05-02T01:17:16.467Z,97778.08
2019-05-02T01:19:53.300Z,97769.17
2019-05-02T01:22:24.089Z,97767.48
2019-05-02T01:24:55.937Z,97765.69
2019-05-02T01:27:35.943Z,97765.14
2019-05-02T01:30:28.485Z,97765.84
2019-05-02T01:33:18.215Z,97755.13
2019-05-02T01:36:24.327Z,97749.05
2019-05-02T01:38:55.410Z,97757.71
2019-05-02T01:41:29.360Z,97755.91
2019-05-02T01:44:01.504Z,97753.91
2019-05-02T01:46:32.367Z,97756.47
2019-05-02T01:49:05.556Z,97748.03
2019-05-02T01:51:47.781Z,97750.00
2019-05-02T01:54:17.843Z,97749.07
2019-05-02T01:56:49.681Z,97755.71
2019-05-02T01:59:21.717Z,97748.14
2019-05-02T02:01:58.024Z,97750.26
2019-05-02T02:04:28.123Z,97743.47
2019-05-02T02:07:00.056Z,97740.69
2019-05-02T02:09:30.737Z,97742.43
2019-05-02T02:12:04.896Z,97741.02
2019-05-02T02:14:34.255Z,97738.46
2019-05-02T02:17:04.957Z,97739.50
2019-05-02T02:19:48.024Z,97742.86
2019-05-02T02:22:39.150Z,97742.48
2019-05-02T02:25:48.204Z,97743.91
2019-05-02T02:28:18.765Z,97747.03
2019-05-02T02:30:49.560Z,97741.06
2019-05-02T02:33:24.377Z,97735.91
2019-05-02T02:35:55.442Z,97736.27
2019-05-02T02:38:32.894Z,97728.82
2019-05-02T02:41:13.224Z,97728.18
2019-05-02T02:43:39.937Z,97724.27
2019-05-02T02:46:37.879Z,97730.06
2019-05-02T02:49:14.229Z,97715.45
2019-05-02T02:51:41.745Z,97728.17
2019-05-02T02:54:13.646Z,97725.56
2019-05-02T02:56:44.475Z,97722.64
2019-05-02T02:59:19.378Z,97720.55
2019-05-02T03:01:51.229Z,97716.16
2019-05-02T03:04:23.138Z,97720.45
2019-05-02T03:06:54.809Z,97718.41
2019-05-02T03:09:28.942Z,97721.58
2019-05-02T03:12:18.173Z,97718.59
2019-05-02T03:14:53.749Z,97716.25
2019-05-02T03:17:28.696Z,97712.83
2019-05-02T03:20:01.826Z,97710.91
2019-05-02T03:22:35.009Z,97714.77
2019-05-02T03:25:06.780Z,97712.61
2019-05-02T03:27:40.503Z,97714.66
2019-05-02T03:30:29.230Z,97715.44
2019-05-02T03:33:03.606Z,97711.73
2019-05-02T03:35:40.198Z,97711.86
2019-05-02T03:37:59.182Z,97703.88
2019-05-02T03:40:38.934Z,97712.80
2019-05-02T03:43:11.545Z,97707.70
2019-05-02T03:45:43.297Z,97706.17
2019-05-02T03:48:18.320Z,97705.02
2019-05-02T03:50:49.783Z,97702.39
2019-05-02T03:53:25.957Z,97702.47
2019-05-02T03:56:10.835Z,97703.64
2019-05-02T03:58:32.699Z,97707.09
2019-05-02T04:01:04.006Z,97703.86
2019-05-02T04:03:41.161Z,97702.19
2019-05-02T04:06:14.049Z,97698.56
2019-05-02T04:08:45.537Z,97707.09
2019-05-02T04:11:37.961Z,97705.80
2019-05-02T04:13:59.657Z,97709.38
2019-05-02T04:16:32.590Z,97709.61
2019-05-02T04:19:07.523Z,97702.45
2019-05-02T04:21:39.707Z,97708.08
2019-05-02T04:24:15.673Z,97710.16
2019-05-02T04:26:53.529Z,97707.63
2019-05-02T04:29:24.513Z,97709.11
2019-05-02T04:31:51.888Z,97710.08
2019-05-02T04:34:23.774Z,97708.22
2019-05-02T04:37:01.554Z,97713.95
2019-05-02T04:39:28.637Z,97710.98
2019-05-02T04:42:05.503Z,97718.44
2019-05-02T04:44:40.875Z,97714.89
2019-05-02T04:47:17.104Z,97721.33
2019-05-02T04:49:41.329Z,97717.75
2019-05-02T04:52:16.607Z,97716.91
2019-05-02T04:54:48.794Z,97716.39
2019-05-02T04:57:19.335Z,97721.36
2019-05-02T05:00:05.004Z,97725.20
2019-05-02T05:02:34.175Z,97731.92
2019-05-02T05:04:58.112Z,97731.76
2019-05-02T05:07:31.049Z,97734.51
2019-05-02T05:10:03.357Z,97726.25
2019-05-02T05:12:38.049Z,97727.19
2019-05-02T05:15:13.380Z,97731.34
2019-05-02T05:17:42.431Z,97729.69
2019-05-02T05:20:15.786Z,97728.95
2019-05-02T05:22:48.001Z,97730.55
2019-05-02T05:25:28.682Z,97735.43
2019-05-02T05:28:05.655Z,97735.88
2019-05-02T05:30:31.999Z,97734.34
2019-05-02T05:33:03.648Z,97729.45
2019-05-02T05:35:38.409Z,97735.59
2019-05-02T05:38:08.752Z,97737.58
2019-05-02T05:40:39.387Z,97740.07
2019-05-02T05:43:14.389Z,97735.76
2019-05-02T05:45:56.401Z,97740.76
2019-05-02T05:48:32.153Z,97740.55
2019-05-02T05:51:04.225Z,97737.59
2019-05-02T05:53:34.845Z,97741.28
2019-05-02T05:56:07.782Z,97739.44
2019-05-02T05:58:39.799Z,97743.42
2019-05-02T06:01:10.782Z,97743.01
2019-05-02T06:03:44.976Z,97736.56
2019-05-02T06:06:22.774Z,97736.31
2019-05-02T06:08:54.147Z,97733.70
2019-05-02T06:11:22.696Z,97734.75
2019-05-02T06:13:54.663Z,97732.30
2019-05-02T06:16:25.415Z,97734.48
2019-05-02T06:18:56.225Z,97735.84
2019-05-02T06:21:32.098Z,97735.09
2019-05-02T06:24:03.028Z,97732.17
2019-05-02T06:26:33.664Z,97729.62
2019-05-02T06:29:07.686Z,97724.48
2019-05-02T06:31:42.980Z,97728.25
2019-05-02T06:34:14.665Z,97728.94
2019-05-02T06:36:44.409Z,97720.52
2019-05-02T06:39:15.462Z,97720.39
2019-05-02T06:41:46.399Z,97713.63
2019-05-02T06:44:23.214Z,97712.85
2019-05-02T06:46:50.627Z,97713.70
2019-05-02T06:49:27.484Z,97711.45
2019-05-02T06:51:58.202Z,97708.66
2019-05-02T06:54:30.342Z,97708.10
2019-05-02T06:57:03.053Z,97705.55
2019-05-02T06:59:39.853Z,97707.59
2019-05-02T07:02:10.619Z,97702.16
2019-05-02T07:04:41.397Z,97702.40
2019-05-02T07:07:15.904Z,97694.59
2019-05-02T07:09:46.987Z,97697.33
2019-05-02T07:12:17.880Z,97689.02
2019-05-02T07:14:48.788Z,97689.04
2019-05-02T07:17:39.937Z,97690.68
2019-05-02T07:20:12.242Z,97682.75
2019-05-02T07:22:45.439Z,97682.88
2019-05-02T07:25:18.568Z,97686.31
2019-05-02T07:27:49.463Z,97678.88
2019-05-02T07:30:20.754Z,97676.91
2019-05-02T07:32:51.335Z,97675.60
2019-05-02T07:35:24.397Z,97674.61
2019-05-02T07:37:56.994Z,97678.35
2019-05-02T07:40:28.947Z,97675.33
2019-05-02T07:43:00.838Z,97673.52
2019-05-02T07:45:32.485Z,97666.97
2019-05-02T07:48:04.474Z,97668.86
2019-05-02T07:50:35.150Z,97674.91
2019-05-02T07:53:09.587Z,97674.73
2019-05-02T07:55:40.588Z,97679.47
2019-05-02T07:58:20.804Z,97675.11
2019-05-02T08:00:51.601Z,97675.71
2019-05-02T08:03:23.473Z,97674.47
2019-05-02T08:05:58.558Z,97670.33
2019-05-02T08:08:31.888Z,97671.20
2019-05-02T08:11:03.905Z,97666.01
2019-05-02T08:13:34.703Z,97666.88
2019-05-02T08:16:05.540Z,97655.39
2019-05-02T08:18:36.159Z,97660.48
2019-05-02T08:21:08.114Z,97656.58
2019-05-02T08:23:38.666Z,97654.95
2019-05-02T08:26:09.693Z,97645.67
2019-05-02T08:28:53.286Z,97646.03
2019-05-02T08:31:25.004Z,97640.16
2019-05-02T08:33:56.910Z,97641.28
2019-05-02T08:36:27.705Z,97634.53
2019-05-02T08:38:58.427Z,97635.35
2019-05-02T08:41:30.399Z,97633.47
2019-05-02T08:44:01.104Z,97631.86
2019-05-02T08:46:31.853Z,97632.97
2019-05-02T08:49:02.538Z,97624.75
2019-05-02T08:51:33.424Z,97623.13
2019-05-02T08:54:04.177Z,97616.27
2019-05-02T08:56:35.048Z,97612.05
2019-05-02T08:59:05.901Z,97613.48
2019-05-02T09:01:37.953Z,97611.59
2019-05-02T09:04:09.778Z,97611.00
2019-05-02T09:06:47.658Z,97610.85
2019-05-02T09:09:22.809Z,97614.08
2019-05-02T09:12:04.826Z,97609.84
2019-05-02T09:14:27.540Z,97609.84
2019-05-02T09:17:06.063Z,97615.73
2019-05-02T09:19:34.997Z,97618.01
2019-05-02T09:22:07.491Z,97614.33
2019-05-02T09:24:38.259Z,97605.48
2019-05-02T09:27:12.091Z,97605.38
2019-05-02T09:29:45.888Z,97605.52
2019-05-02T09:32:17.059Z,97610.34
2019-05-02T09:34:51.707Z,97603.09
2019-05-02T09:37:28.357Z,97598.83
2019-05-02T09:40:02.234Z,97589.83
2019-05-02T09:42:36.008Z,97590.59
2019-05-02T09:45:22.719Z,97582.74
2019-05-02T09:48:01.579Z,97590.02
2019-05-02T09:50:42.267Z,97584.89
2019-05-02T09:53:20.878Z,97591.07
2019-05-02T09:55:50.283Z,97576.94
2019-05-02T09:58:21.395Z,97580.42
2019-05-02T10:01:11.913Z,97575.84
2019-05-02T10:03:42.983Z,97573.05
2019-05-02T10:06:36.500Z,97568.53
2019-05-02T10:08:49.274Z,97566.89
2019-05-02T10:11:22.471Z,97563.66
2019-05-02T10:13:55.483Z,97565.56
2019-05-02T10:16:28.473Z,97562.03
2019-05-02T10:19:08.911Z,97559.70
2019-05-02T10:21:32.756Z,97560.94
2019-05-02T10:24:04.263Z,97550.91
2019-05-02T10:26:37.939Z,97546.53
2019-05-02T10:29:08.771Z,97540.53
2019-05-02T10:31:45.515Z,97550.73
2019-05-02T10:34:17.831Z,97538.95
2019-05-02T10:36:54.283Z,97541.41
2019-05-02T10:39:23.410Z,97544.21
2019-05-02T10:41:57.447Z,97540.52
2019-05-02T10:44:32.597Z,97545.58
2019-05-02T10:47:02.904Z,97537.48
2019-05-02T10:49:40.124Z,97532.36
2019-05-02T10:52:12.203Z,97528.83
2019-05-02T10:54:44.275Z,97529.19
2019-05-02T10:57:16.228Z,97522.16
2019-05-02T10:59:56.120Z,97516.48
2019-05-02T11:02:45.211Z,97516.84
2019-05-02T11:05:22.574Z,97516.66
2019-05-02T11:07:52.322Z,97517.60
2019-05-02T11:10:28.174Z,97512.03
2019-05-02T11:13:23.911Z,97514.48
2019-05-02T11:16:23.106Z,97516.50
2019-05-02T11:19:13.252Z,97512.45
2019-05-02T11:21:55.436Z,97517.80
2019-05-02T11:24:17.870Z,97511.53
2019-05-02T11:26:48.604Z,97511.38
2019-05-02T11:29:19.147Z,97506.09
2019-05-02T11:31:53.163Z,97497.98
2019-05-02T11:34:24.134Z,97498.81
2019-05-02T11:36:55.018Z,97498.81
2019-05-02T11:39:33.511Z,97503.06
2019-05-02T11:42:02.131Z,97497.34
2019-05-02T11:44:47.770Z,97491.83
2019-05-02T11:47:26.679Z,97501.30
2019-05-02T11:50:06.858Z,97500.87
2019-05-02T11:52:39.546Z,97503.58
2019-05-02T11:55:12.954Z,97495.05
2019-05-02T11:57:52.348Z,97491.69
2019-05-02T12:00:27.601Z,97494.33
2019-05-02T12:03:16.030Z,97492.91
2019-05-02T12:06:02.073Z,97488.85
2019-05-02T12:08:45.120Z,97489.17
2019-05-02T12:11:22.851Z,97489.14
2019-05-02T12:13:57.050Z,97486.81
2019-05-02T12:16:37.998Z,97487.08
2019-05-02T12:19:17.627Z,97478.89
2019-05-02T12:22:07.114Z,97482.97
2019-05-02T12:24:46.562Z,97476.83
2019-05-02T12:27:26.696Z,97474.76
2019-05-02T12:29:59.378Z,97470.80
2019-05-02T12:32:30.753Z,97475.88
2019-05-02T12:35:02.561Z,97468.20
2019-05-02T12:37:34.513Z,97475.39
2019-05-02T12:40:08.078Z,97460.66
2019-05-02T12:42:41.864Z,97458.02
2019-05-02T12:45:22.029Z,97459.67
2019-05-02T12:47:55.914Z,97463.23
2019-05-02T12:50:32.293Z,97459.52
2019-05-02T12:53:12.400Z,97460.45
2019-05-02T12:55:50.061Z,97461.77
2019-05-02T12:58:21.885Z,97458.92
2019-05-02T13:00:58.810Z,97458.95
2019-05-02T13:03:58.960Z,97453.55
2019-05-02T13:06:37.069Z,97459.98
2019-05-02T13:09:13.364Z,97463.98
2019-05-02T13:12:07.557Z,97449.94
2019-05-02T13:14:44.057Z,97458.14
2019-05-02T13:17:16.283Z,97453.88
2019-05-02T13:19:55.810Z,97442.50
2019-05-02T13:22:47.224Z,97445.66
2019-05-02T13:25:32.785Z,97447.56
2019-05-02T13:28:03.899Z,97441.50
2019-05-02T13:30:51.783Z,97439.95
2019-05-02T13:33:35.812Z,97430.78
2019-05-02T13:36:06.735Z,97441.38
2019-05-02T13:38:43.524Z,97431.84
2019-05-02T13:41:15.586Z,97428.89
2019-05-02T13:43:48.331Z,97424.67
2019-05-02T13:46:22.349Z,97416.98
2019-05-02T13:48:53.379Z,97415.72
2019-05-02T13:51:25.289Z,97408.38
2019-05-02T13:54:02.246Z,97399.96
2019-05-02T13:56:52.421Z,97397.89
2019-05-02T13:59:23.226Z,97397.64
2019-05-02T14:02:02.792Z,97388.16
2019-05-02T14:04:34.287Z,97388.16
2019-05-02T14:07:07.571Z,97389.66
2019-05-02T14:09:44.160Z,97380.15
2019-05-02T14:12:42.971Z,97379.42
2019-05-02T14:15:15.212Z,97376.77
2019-05-02T14:17:47.161Z,97367.70
2019-05-02T14:20:22.569Z,97382.18
2019-05-02T14:22:53.568Z,97367.89
2019-05-02T14:25:24.417Z,97375.23
2019-05-02T14:27:55.757Z,97366.21
2019-05-02T14:30:37.294Z,97365.92
2019-05-02T14:33:13.788Z,97358.34
2019-05-02T14:35:46.662Z,97366.35
2019-05-02T14:38:17.574Z,97354.55
2019-05-02T14:41:14.300Z,97356.69
2019-05-02T14:43:55.918Z,97350.36
2019-05-02T14:46:35.530Z,97351.16
2019-05-02T14:49:02.948Z,97346.09
2019-05-02T14:51:37.246Z,97345.57
2019-05-02T14:54:08.955Z,97349.55
2019-05-02T14:57:02.102Z,97343.22
2019-05-02T14:59:34.116Z,97346.64
2019-05-02T15:02:09.048Z,97342.13
2019-05-02T15:04:46.328Z,97340.28
2019-05-02T15:07:13.008Z,97334.14
2019-05-02T15:09:43.923Z,97337.06
2019-05-02T15:12:18.874Z,97332.86
2019-05-02T15:14:49.739Z,97333.91
2019-05-02T15:17:22.722Z,97340.22
2019-05-02T15:19:54.615Z,97327.80
2019-05-02T15:22:31.842Z,97323.83
2019-05-02T15:25:02.680Z,97325.96
2019-05-02T15:27:41.921Z,97327.80
2019-05-02T15:30:12.445Z,97325.44
2019-05-02T15:32:58.981Z,97319.87
2019-05-02T15:35:42.592Z,97321.47
2019-05-02T15:38:20.843Z,97319.11
2019-05-02T15:40:50.470Z,97312.73
2019-05-02T15:43:19.618Z,97309.80
2019-05-02T15:45:52.665Z,97311.17
2019-05-02T15:48:27.516Z,97314.92
2019-05-02T15:51:05.030Z,97310.17
2019-05-02T15:53:48.259Z,97306.24
2019-05-02T15:56:20.056Z,97306.48
2019-05-02T15:58:52.394Z,97309.95
2019-05-02T16:01:52.465Z,97311.61
2019-05-02T16:04:29.392Z,97309.41
2019-05-02T16:07:06.967Z,97308.09
2019-05-02T16:09:33.700Z,97308.27
2019-05-02T16:12:06.236Z,97308.76
2019-05-02T16:14:37.254Z,97302.67
2019-05-02T16:17:09.358Z,97307.45
2019-05-02T16:19:45.238Z,97302.42
2019-05-02T16:22:19.917Z,97307.44
2019-05-02T16:24:51.449Z,97303.77
2019-05-02T16:27:44.269Z,97297.72
2019-05-02T16:30:22.394Z,97310.96
2019-05-02T16:33:02.482Z,97308.03
2019-05-02T16:35:34.184Z,97317.00
2019-05-02T16:38:09.135Z,97309.56
2019-05-02T16:40:41.890Z,97310.58
2019-05-02T16:43:19.731Z,97319.50
2019-05-02T16:45:52.567Z,97308.31
2019-05-02T16:48:25.354Z,97316.66
2019-05-02T16:50:56.318Z,97317.91
2019-05-02T16:53:27.194Z,97311.02
2019-05-02T16:56:05.474Z,97318.63
2019-05-02T16:58:37.997Z,97320.14
2019-05-02T17:01:06.637Z,97320.94
2019-05-02T17:03:37.442Z,97327.03
2019-05-02T17:06:08.179Z,97327.25
2019-05-02T17:08:58.514Z,97328.78
2019-05-02T17:11:37.085Z,97331.61
2019-05-02T17:14:13.559Z,97327.11
2019-05-02T17:16:52.354Z,97334.58
2019-05-02T17:19:31.382Z,97332.91
2019-05-02T17:22:02.472Z,97333.95
2019-05-02T17:24:32.860Z,97331.28
2019-05-02T17:27:07.205Z,97330.35
2019-05-02T17:29:44.185Z,97330.02
2019-05-02T17:32:16.675Z,97339.13
2019-05-02T17:34:47.761Z,97342.03
2019-05-02T17:37:24.512Z,97341.69
2019-05-02T17:39:56.570Z,97339.83
2019-05-02T17:42:27.227Z,97342.07
2019-05-02T17:45:01.708Z,97342.27
2019-05-02T17:47:35.581Z,97346.72
2019-05-02T17:50:15.596Z,97343.77
2019-05-02T17:52:45.639Z,97347.64
2019-05-02T17:55:18.663Z,97349.70
2019-05-02T17:57:51.631Z,97353.66
2019-05-02T18:00:30.611Z,97352.80
2019-05-02T18:03:02.606Z,97355.44
2019-05-02T18:05:35.787Z,97355.34
2019-05-02T18:08:10.717Z,97363.69
2019-05-02T18:10:41.901Z,97365.71
2019-05-02T18:13:12.985Z,97369.83
2019-05-02T18:15:46.961Z,97372.98
2019-05-02T18:18:18.927Z,97372.63
2019-05-02T18:20:52.724Z,97373.30
2019-05-02T18:23:27.628Z,97376.79
2019-05-02T18:26:04.432Z,97381.70
2019-05-02T18:28:31.777Z,97385.88
2019-05-02T18:31:05.721Z,97386.98
2019-05-02T18:33:40.965Z,97396.53
2019-05-02T18:36:09.725Z,97397.16
2019-05-02T18:38:41.718Z,97406.83
2019-05-02T18:41:14.045Z,97405.17
2019-05-02T18:43:45.907Z,97411.53
2019-05-02T18:46:19.944Z,97414.05
2019-05-02T18:48:51.870Z,97416.27
2019-05-02T18:51:23.070Z,97419.29
2019-05-02T18:53:57.860Z,97429.49
2019-05-02T18:56:35.601Z,97423.03
2019-05-02T18:59:06.115Z,97428.05
2019-05-02T19:01:38.352Z,97431.28
2019-05-02T19:04:13.271Z,97435.00
2019-05-02T19:06:48.404Z,97435.53
2019-05-02T19:09:30.454Z,97435.56
2019-05-02T19:12:05.908Z,97440.32
2019-05-02T19:14:43.702Z,97446.39
2019-05-02T19:17:26.685Z,97446.20
2019-05-02T19:19:58.507Z,97446.83
2019-05-02T19:22:32.203Z,97448.09
2019-05-02T19:25:04.462Z,97449.56
2019-05-02T19:28:04.409Z,97452.41
2019-05-02T19:30:51.966Z,97458.95
2019-05-02T19:33:25.877Z,97451.77
2019-05-02T19:35:56.568Z,97462.39
2019-05-02T19:38:27.324Z,97459.41
2019-05-02T19:41:18.786Z,97473.37
2019-05-02T19:44:02.337Z,97466.14
2019-05-02T19:46:38.611Z,97471.37
2019-05-02T19:49:16.287Z,97471.56
2019-05-02T19:51:56.324Z,97473.74
2019-05-02T19:54:33.542Z,97474.70
2019-05-02T19:56:59.761Z,97468.21
2019-05-02T19:59:32.172Z,97462.15
2019-05-02T20:02:11.891Z,97470.56
2019-05-02T20:04:58.227Z,97473.34
2019-05-02T20:07:35.976Z,97476.33
2019-05-02T20:10:07.032Z,97476.77
2019-05-02T20:12:40.904Z,97481.72
2019-05-02T20:15:17.021Z,97487.59
2019-05-02T20:17:55.338Z,97478.61
2019-05-02T20:21:23.156Z,97481.07
2019-05-02T20:23:55.292Z,97477.58
2019-05-02T20:26:35.484Z,97478.76
2019-05-02T20:29:12.382Z,97476.34
2019-05-02T20:31:45.131Z,97483.64
2019-05-02T20:34:17.892Z,97487.27
2019-05-02T20:36:51.817Z,97494.14
2019-05-02T20:39:27.119Z,97494.88
2019-05-02T20:42:19.863Z,97494.65
2019-05-02T20:44:52.795Z,97500.50
2019-05-02T20:47:27.244Z,97499.03
2019-05-02T20:49:59.180Z,97499.70
2019-05-02T20:52:29.875Z,97492.97
2019-05-02T20:55:05.032Z,97498.73
2019-05-02T20:57:59.099Z,97506.55
2019-05-02T21:00:48.102Z,97505.23
2019-05-02T21:03:19.938Z,97503.92
2019-05-02T21:06:37.548Z,97497.93
2019-05-02T21:09:24.236Z,97506.48
2019-05-02T21:12:02.047Z,97501.36
2019-05-02T21:14:34.129Z,97506.75
2019-05-02T21:17:06.238Z,97508.50
2019-05-02T21:19:38.142Z,97513.75
2019-05-02T21:22:24.175Z,97514.63
2019-05-02T21:24:55.114Z,97512.88
2019-05-02T21:27:25.972Z,97512.27
2019-05-02T21:30:06.645Z,97520.95
2019-05-02T21:32:40.379Z,97515.83
2019-05-02T21:35:14.871Z,97513.01
2019-05-02T21:37:55.911Z,97513.55
2019-05-02T21:40:26.585Z,97519.09
2019-05-02T21:43:02.458Z,97516.73
2019-05-02T21:45:36.646Z,97518.48
2019-05-02T21:48:07.275Z,97520.23
2019-05-02T21:50:52.436Z,97524.61
2019-05-02T21:53:55.001Z,97516.80
2019-05-02T21:56:26.638Z,97525.74
2019-05-02T21:59:07.366Z,97520.06
2019-05-02T22:01:47.226Z,97520.36
2019-05-02T22:04:18.282Z,97522.48
2019-05-02T22:06:52.244Z,97519.66
2019-05-02T22:09:24.503Z,97521.68
2019-05-02T22:11:55.292Z,97525.04
2019-05-02T22:14:27.150Z,97523.73
2019-05-02T22:16:58.773Z,97528.60
2019-05-02T22:19:29.509Z,97532.03
2019-05-02T22:22:02.332Z,97535.97
2019-05-02T22:24:33.110Z,97531.66
2019-05-02T22:27:05.499Z,97538.29
2019-05-02T22:29:43.011Z,97539.98
2019-05-02T22:32:22.622Z,97539.09
2019-05-02T22:35:01.862Z,97541.17
2019-05-02T22:37:32.983Z,97542.05
2019-05-02T22:40:07.492Z,97543.92
2019-05-02T22:42:47.690Z,97548.73
2019-05-02T22:45:24.328Z,97550.05
2019-05-02T22:48:02.629Z,97544.02
2019-05-02T22:50:38.499Z,97543.09
2019-05-02T22:53:12.023Z,97555.02
2019-05-02T22:55:42.591Z,97546.16
2019-05-02T22:58:21.785Z,97542.77
2019-05-02T23:00:52.526Z,97552.02
2019-05-02T23:03:24.212Z,97550.83
2019-05-02T23:05:54.841Z,97552.58
2019-05-02T23:08:26.734Z,97550.91
2019-05-02T23:11:05.533Z,97557.89
2019-05-02T23:13:56.834Z,97558.20
2019-05-02T23:16:27.705Z,97562.20
2019-05-02T23:19:02.790Z,97553.66
2019-05-02T23:21:42.375Z,97554.39
2019-05-02T23:24:36.384Z,97556.63
2019-05-02T23:27:17.237Z,97553.00
2019-05-02T23:29:51.954Z,97552.89
2019-05-02T23:32:23.950Z,97546.77
2019-05-02T23:34:54.675Z,97552.39
2019-05-02T23:37:32.632Z,97555.52
2019-05-02T23:40:19.326Z,97552.52
2019-05-02T23:42:52.430Z,97554.05
2019-05-02T23:45:27.220Z,97555.36
2019-05-02T23:48:05.119Z,97558.69
2019-05-02T23:50:36.903Z,97552.28
2019-05-02T23:53:07.519Z,97551.47
2019-05-02T23:55:43.409Z,97553.79
2019-05-02T23:58:14.082Z,97558.53
